Time;durP1;ratioP1;P1;durP2;ratioP2;P2;SDS_P1;SDS_P2;PMS_P1;PMS_P2;Temp;Humidity;BMP_temperature;BMP_pressure;BME280_temperature;BME280_humidity;BME280_pressure;Samples;Min_cycle;Max_cycle;Signal;HPM_P1;HPM_P2
2022/09/17 00:02:24;;;;;;;2.35;1.20;;;9.80;20.90;;;;;;5091469;27;35768;-75
2022/09/17 00:04:50;;;;;;;1.75;1.30;;;9.80;20.50;;;;;;5092175;27;34091;-75
2022/09/17 00:07:17;;;;;;;2.67;1.20;;;9.80;20.30;;;;;;5109224;27;34123;-74
2022/09/17 00:09:43;;;;;;;2.08;1.33;;;9.80;20.40;;;;;;5108697;27;34451;-75
2022/09/17 00:12:09;;;;;;;2.25;1.10;;;9.70;20.80;;;;;;5108766;27;35474;-75
2022/09/17 00:14:35;;;;;;;1.75;1.45;;;9.80;20.60;;;;;;5108570;27;34198;-75
2022/09/17 00:17:01;;;;;;;1.95;1.42;;;9.70;20.30;;;;;;5108762;27;34037;-75
2022/09/17 00:19:27;;;;;;;1.58;1.30;;;9.70;20.90;;;;;;5108668;27;34179;-74
2022/09/17 00:21:53;;;;;;;3.67;1.73;;;9.70;20.70;;;;;;5126482;27;34568;-75
2022/09/17 00:24:19;;;;;;;2.17;1.20;;;9.70;21.10;;;;;;5125912;27;34075;-75
2022/09/17 00:26:46;;;;;;;2.08;1.35;;;9.70;21.20;;;;;;5127045;27;34222;-75
2022/09/17 00:29:12;;;;;;;1.98;1.25;;;9.70;20.90;;;;;;5108193;27;34175;-75
2022/09/17 00:31:39;;;;;;;1.88;1.33;;;9.70;21.30;;;;;;5108717;27;36704;-75
2022/09/17 00:34:06;;;;;;;1.48;1.35;;;9.70;20.70;;;;;;5091603;27;34264;-75
2022/09/17 00:36:36;;;;;;;2.00;1.20;;;9.70;21.60;;;;;;5126539;27;34083;-75
2022/09/17 00:39:03;;;;;;;2.03;1.27;;;9.70;21.20;;;;;;5091559;27;34455;-75
2022/09/17 00:41:32;;;;;;;2.97;1.13;;;9.70;21.10;;;;;;5107861;27;36366;-75
2022/09/17 00:44:00;;;;;;;1.67;1.45;;;9.80;20.80;;;;;;5108298;27;34132;-75
2022/09/17 00:46:40;;;;;;;1.88;1.48;;;9.70;21.00;;;;;;5091417;27;34290;-75
2022/09/17 00:49:13;;;;;;;1.10;1.10;;;9.70;21.00;;;;;;5108160;27;34467;-75
2022/09/17 00:51:48;;;;;;;3.05;1.23;;;9.80;20.90;;;;;;5091528;27;34406;-75
2022/09/17 00:54:14;;;;;;;1.55;1.20;;;9.70;21.30;;;;;;5108085;27;34211;-75
2022/09/17 00:56:42;;;;;;;2.50;1.38;;;9.70;21.20;;;;;;5108060;27;34194;-75
2022/09/17 00:59:08;;;;;;;1.58;1.30;;;9.80;21.30;;;;;;5126251;27;34231;-74
2022/09/17 01:01:35;;;;;;;3.75;1.40;;;9.90;21.20;;;;;;5107858;27;35554;-74
2022/09/17 01:04:02;;;;;;;2.60;1.60;;;9.90;21.40;;;;;;5108281;27;34198;-74
2022/09/17 01:07:04;;;;;;;3.50;1.48;;;9.90;21.00;;;;;;5107706;27;34189;-74
2022/09/17 01:09:53;;;;;;;1.80;1.40;;;10.00;22.30;;;;;;5096047;27;34332;-75
2022/09/17 01:12:41;;;;;;;1.83;1.23;;;10.10;21.40;;;;;;5107809;27;36018;-73
2022/09/17 01:15:42;;;;;;;2.05;1.25;;;10.10;20.80;;;;;;5107151;27;34312;-74
2022/09/17 01:18:36;;;;;;;1.05;0.95;;;10.10;21.90;;;;;;5095609;27;34175;-74
2022/09/17 01:21:29;;;;;;;2.75;1.35;;;10.10;20.90;;;;;;5107888;27;34050;-74
2022/09/17 01:24:27;;;;;;;3.28;1.10;;;10.00;21.30;;;;;;5125975;27;35309;-74
2022/09/17 01:27:24;;;;;;;1.10;1.00;;;10.00;21.50;;;;;;5107611;27;34349;-75
2022/09/17 01:30:17;;;;;;;2.17;1.10;;;9.90;21.50;;;;;;5112430;27;34180;-74
2022/09/17 01:33:08;;;;;;;1.10;1.00;;;9.90;20.90;;;;;;5107394;27;34557;-75
2022/09/17 01:35:47;;;;;;;3.08;1.20;;;9.90;21.10;;;;;;5107279;27;36475;-74
2022/09/17 01:38:26;;;;;;;1.80;1.08;;;9.90;21.30;;;;;;5090545;27;34281;-75
2022/09/17 01:41:09;;;;;;;1.02;0.95;;;9.80;21.40;;;;;;5107264;27;34129;-74
2022/09/17 01:43:49;;;;;;;1.33;1.17;;;9.70;21.60;;;;;;5091255;27;34127;-75
2022/09/17 01:46:23;;;;;;;1.98;1.15;;;9.70;21.60;;;;;;5107629;27;35981;-74
2022/09/17 01:48:54;;;;;;;2.25;1.10;;;9.60;21.10;;;;;;5107397;27;34357;-75
2022/09/17 01:51:25;;;;;;;5.57;1.00;;;9.60;21.20;;;;;;5106881;27;34299;-75
2022/09/17 01:53:58;;;;;;;3.17;1.35;;;9.60;21.40;;;;;;5090949;27;34033;-75
2022/09/17 01:56:29;;;;;;;2.20;1.20;;;9.60;21.50;;;;;;5106062;27;36504;-74
2022/09/17 01:59:02;;;;;;;3.97;1.20;;;9.60;21.70;;;;;;5107543;27;34115;-75
2022/09/17 02:01:31;;;;;;;1.25;1.13;;;9.70;22.10;;;;;;5106929;27;34198;-75
2022/09/17 02:04:04;;;;;;;1.52;1.00;;;9.70;22.00;;;;;;5090387;27;34250;-75
2022/09/17 02:06:36;;;;;;;3.42;1.67;;;9.80;22.20;;;;;;5107850;27;34325;-75
2022/09/17 02:09:13;;;;;;;4.97;1.50;;;9.80;21.80;;;;;;5107394;27;34139;-75
2022/09/17 02:11:43;;;;;;;4.68;1.70;;;9.90;22.00;;;;;;5107319;27;34065;-75
2022/09/17 02:14:15;;;;;;;1.85;1.40;;;9.90;21.80;;;;;;5107489;27;34123;-75
2022/09/17 02:16:49;;;;;;;1.50;1.40;;;9.90;21.80;;;;;;5089971;27;35803;-75
2022/09/17 02:19:23;;;;;;;3.95;1.60;;;9.90;22.10;;;;;;5125623;27;34153;-75
2022/09/17 02:22:01;;;;;;;4.70;1.70;;;9.90;21.70;;;;;;5107312;27;34147;-75
2022/09/17 02:24:46;;;;;;;2.83;1.40;;;10.00;21.70;;;;;;5124480;27;34484;-75
2022/09/17 02:27:23;;;;;;;1.52;1.30;;;10.00;21.70;;;;;;5107134;27;35544;-75
2022/09/17 02:29:49;;;;;;;3.63;1.67;;;10.00;21.50;;;;;;5125041;27;34209;-75
2022/09/17 02:32:15;;;;;;;3.25;1.42;;;10.10;21.90;;;;;;5125028;27;34144;-75
2022/09/17 02:34:41;;;;;;;2.53;1.40;;;10.10;21.40;;;;;;5106588;27;34484;-75
2022/09/17 02:37:08;;;;;;;2.20;1.60;;;10.10;21.70;;;;;;5124871;27;34436;-75
2022/09/17 02:39:34;;;;;;;4.32;1.85;;;10.10;21.70;;;;;;5125229;27;34545;-75
2022/09/17 02:42:35;;;;;;;2.90;1.52;;;10.20;21.30;;;;;;5124116;27;34216;-75
2022/09/17 02:45:16;;;;;;;3.85;1.60;;;10.20;22.30;;;;;;5110162;27;34126;-76
2022/09/17 02:48:22;;;;;;;3.45;1.70;;;10.30;21.60;;;;;;5124164;27;35032;-75
2022/09/17 02:51:12;;;;;;;2.53;1.60;;;10.30;22.30;;;;;;5080932;27;34169;-75
2022/09/17 02:54:18;;;;;;;1.83;1.60;;;10.30;22.10;;;;;;5106228;27;34115;-75
2022/09/17 02:57:19;;;;;;;4.00;1.80;;;10.40;22.00;;;;;;5081765;27;34271;-75
2022/09/17 02:59:55;;;;;;;2.47;1.70;;;10.50;22.30;;;;;;5109344;27;35251;-75
2022/09/17 03:02:27;;;;;;;2.95;1.90;;;10.60;21.30;;;;;;5106359;27;34047;-75
2022/09/17 03:04:55;;;;;;;2.63;1.33;;;10.60;21.20;;;;;;5106349;27;34215;-75
2022/09/17 03:07:22;;;;;;;6.32;1.73;;;10.70;21.10;;;;;;5089575;27;34476;-75
2022/09/17 03:09:48;;;;;;;4.00;2.17;;;10.70;21.90;;;;;;5107601;27;34587;-77
2022/09/17 03:12:15;;;;;;;5.55;1.98;;;10.80;21.90;;;;;;5106393;27;34300;-75
2022/09/17 03:14:41;;;;;;;3.70;2.00;;;10.80;21.60;;;;;;5123703;27;34340;-74
2022/09/17 03:17:07;;;;;;;3.05;1.90;;;10.90;21.30;;;;;;5089628;27;34126;-76
2022/09/17 03:19:33;;;;;;;4.70;1.98;;;11.00;21.20;;;;;;5106209;27;36256;-76
2022/09/17 03:21:59;;;;;;;5.15;1.85;;;11.00;21.10;;;;;;5089693;27;34073;-75
2022/09/17 03:24:26;;;;;;;3.85;2.05;;;11.00;21.00;;;;;;5124444;27;34001;-75
2022/09/17 03:26:51;;;;;;;3.67;1.95;;;11.10;21.20;;;;;;5106879;27;34187;-75
2022/09/17 03:29:17;;;;;;;2.47;1.65;;;11.10;21.10;;;;;;5122416;27;35467;-75
2022/09/17 03:31:43;;;;;;;2.03;1.75;;;11.20;21.20;;;;;;5123661;27;34163;-75
2022/09/17 03:34:10;;;;;;;3.20;2.15;;;11.20;21.20;;;;;;5107176;27;34199;-78
2022/09/17 03:36:36;;;;;;;2.17;1.98;;;11.30;21.20;;;;;;5107979;27;34492;-75
2022/09/17 03:39:02;;;;;;;2.28;1.92;;;11.30;21.40;;;;;;5112432;27;35735;-76
2022/09/17 03:41:28;;;;;;;2.67;1.83;;;11.30;20.90;;;;;;5109506;27;34261;-75
2022/09/17 03:43:54;;;;;;;3.67;2.00;;;11.40;21.50;;;;;;5109998;27;34465;-75
2022/09/17 03:46:20;;;;;;;3.47;1.92;;;11.40;20.90;;;;;;5110804;27;34152;-75
2022/09/17 03:48:46;;;;;;;2.53;1.90;;;11.40;21.00;;;;;;5109754;27;35743;-75
2022/09/17 03:51:12;;;;;;;3.22;2.00;;;11.40;21.20;;;;;;5109146;27;34174;-75
2022/09/17 03:53:38;;;;;;;5.95;2.25;;;11.40;21.20;;;;;;5127846;27;34201;-76
2022/09/17 03:56:06;;;;;;;4.05;2.85;;;11.50;21.30;;;;;;5109899;27;34282;-75
2022/09/17 03:58:32;;;;;;;3.30;2.47;;;11.50;21.40;;;;;;5109603;27;35699;-75
2022/09/17 04:00:58;;;;;;;4.72;2.20;;;11.60;21.40;;;;;;5127799;27;34245;-76
2022/09/17 04:03:26;;;;;;;5.15;2.28;;;11.60;20.70;;;;;;5110647;27;34049;-75
2022/09/17 04:05:52;;;;;;;4.03;1.73;;;11.60;20.80;;;;;;5109676;27;34540;-75
2022/09/17 04:08:18;;;;;;;3.00;2.03;;;11.60;20.70;;;;;;5109010;27;35819;-75
2022/09/17 04:10:44;;;;;;;4.60;2.00;;;11.70;21.20;;;;;;5109019;27;34172;-75
2022/09/17 04:13:12;;;;;;;2.25;1.83;;;11.70;20.80;;;;;;5109263;27;34242;-75
2022/09/17 04:15:38;;;;;;;2.38;1.67;;;11.70;21.20;;;;;;5109407;27;34515;-75
2022/09/17 04:18:04;;;;;;;4.15;1.55;;;11.70;20.50;;;;;;5075147;27;36349;-75
2022/09/17 04:20:31;;;;;;;3.60;1.67;;;11.70;20.50;;;;;;5091941;27;34379;-76
2022/09/17 04:22:56;;;;;;;2.45;1.58;;;11.70;21.20;;;;;;5092505;27;34103;-76
2022/09/17 04:25:23;;;;;;;2.75;1.50;;;11.70;20.50;;;;;;5128213;27;34248;-75
2022/09/17 04:27:49;;;;;;;7.38;1.50;;;11.70;20.60;;;;;;5126951;27;35358;-75
2022/09/17 04:30:15;;;;;;;2.65;1.45;;;11.70;20.70;;;;;;5092824;27;34391;-75
2022/09/17 04:32:43;;;;;;;2.13;1.60;;;11.80;20.70;;;;;;5093140;27;34285;-75
2022/09/17 04:35:09;;;;;;;2.30;1.23;;;11.80;21.20;;;;;;5109124;27;34121;-75
2022/09/17 04:37:35;;;;;;;3.63;1.30;;;11.80;20.50;;;;;;5109283;27;34553;-75
2022/09/17 04:40:03;;;;;;;3.83;1.42;;;11.80;20.60;;;;;;5108705;27;34083;-75
2022/09/17 04:42:28;;;;;;;3.30;1.55;;;11.80;20.70;;;;;;5091078;27;34180;-75
2022/09/17 04:44:54;;;;;;;4.63;1.30;;;11.70;21.10;;;;;;5108767;27;34388;-76
2022/09/17 04:47:21;;;;;;;3.00;1.50;;;11.70;20.70;;;;;;5126701;27;34116;-76
2022/09/17 04:49:47;;;;;;;3.97;1.55;;;11.70;21.10;;;;;;5092859;27;34223;-76
2022/09/17 04:52:12;;;;;;;7.13;1.55;;;11.70;21.30;;;;;;5109213;27;34167;-76
2022/09/17 04:54:38;;;;;;;2.40;1.45;;;11.70;20.80;;;;;;5127853;27;34094;-75
2022/09/17 04:57:04;;;;;;;3.10;1.20;;;11.70;20.90;;;;;;5110002;27;36425;-81
2022/09/17 04:59:30;;;;;;;2.45;1.20;;;11.70;20.50;;;;;;5092111;27;34511;-75
2022/09/17 05:01:56;;;;;;;3.10;1.40;;;11.70;20.90;;;;;;5108649;27;34211;-75
2022/09/17 05:04:22;;;;;;;2.65;1.27;;;11.70;20.60;;;;;;5090539;27;34545;-75
2022/09/17 05:06:48;;;;;;;2.15;1.00;;;11.70;20.80;;;;;;5109550;27;34727;-75
2022/09/17 05:09:14;;;;;;;1.17;0.90;;;11.70;20.50;;;;;;5126611;27;34242;-75
2022/09/17 05:11:40;;;;;;;2.00;1.23;;;11.70;20.50;;;;;;5108083;27;34368;-75
2022/09/17 05:14:06;;;;;;;2.25;1.20;;;11.70;20.70;;;;;;5108872;27;34432;-75
2022/09/17 05:16:33;;;;;;;0.93;0.90;;;11.70;20.70;;;;;;5091023;27;36655;-75
2022/09/17 05:18:58;;;;;;;4.25;1.27;;;11.70;21.00;;;;;;5125259;27;34252;-75
2022/09/17 05:21:24;;;;;;;3.03;1.10;;;11.70;20.80;;;;;;5126354;27;34154;-75
2022/09/17 05:23:50;;;;;;;2.42;0.93;;;11.70;21.30;;;;;;5108350;27;34333;-75
2022/09/17 05:26:16;;;;;;;3.92;0.98;;;11.60;20.50;;;;;;5107284;27;35884;-75
2022/09/17 05:28:42;;;;;;;1.00;0.90;;;11.60;21.40;;;;;;5107117;27;34270;-75
2022/09/17 05:31:08;;;;;;;2.50;1.00;;;11.60;21.10;;;;;;5107699;27;34372;-75
2022/09/17 05:33:34;;;;;;;1.85;1.15;;;11.60;21.60;;;;;;5107358;27;34160;-75
2022/09/17 05:36:00;;;;;;;0.82;0.82;;;11.60;21.20;;;;;;5125932;27;34696;-76
2022/09/17 05:38:27;;;;;;;2.20;0.98;;;11.70;21.90;;;;;;5107843;27;34297;-76
2022/09/17 05:40:53;;;;;;;1.35;1.00;;;11.70;21.40;;;;;;5107358;27;34255;-76
2022/09/17 05:43:19;;;;;;;1.35;0.90;;;11.70;21.70;;;;;;5107017;27;34134;-75
2022/09/17 05:45:45;;;;;;;1.73;1.00;;;11.70;21.70;;;;;;5124285;27;35844;-76
2022/09/17 05:48:13;;;;;;;3.50;0.90;;;11.80;21.40;;;;;;5106900;27;34037;-75
2022/09/17 05:50:40;;;;;;;2.35;0.90;;;11.80;21.10;;;;;;5106683;27;34473;-76
2022/09/17 05:53:11;;;;;;;5.97;1.25;;;11.80;21.50;;;;;;5106984;27;34489;-76
2022/09/17 05:55:37;;;;;;;1.20;0.80;;;11.90;20.90;;;;;;5089412;27;34133;-77
2022/09/17 05:58:12;;;;;;;2.42;1.05;;;11.90;20.90;;;;;;5106885;27;34182;-76
2022/09/17 06:00:39;;;;;;;1.50;0.90;;;12.00;20.80;;;;;;5106269;27;34357;-76
2022/09/17 06:03:05;;;;;;;0.73;0.70;;;12.00;20.70;;;;;;5089773;27;34161;-76
2022/09/17 06:05:34;;;;;;;2.25;0.80;;;12.10;20.70;;;;;;5085902;28;36071;-76
2022/09/17 06:08:01;;;;;;;1.33;0.77;;;12.10;20.90;;;;;;5088003;28;34075;-76
2022/09/17 06:10:26;;;;;;;4.10;0.90;;;12.10;20.70;;;;;;5069499;28;34148;-76
2022/09/17 06:12:57;;;;;;;2.20;0.70;;;12.10;20.70;;;;;;5103134;28;34198;-76
2022/09/17 06:15:25;;;;;;;1.30;0.70;;;12.20;20.80;;;;;;5103750;28;34419;-76
2022/09/17 06:17:51;;;;;;;2.13;0.80;;;12.40;20.80;;;;;;5086777;28;34242;-76
2022/09/17 06:20:18;;;;;;;0.98;0.80;;;12.50;20.50;;;;;;5069330;28;34302;-76
2022/09/17 06:22:44;;;;;;;2.35;0.75;;;12.60;20.50;;;;;;5086327;28;34343;-76
2022/09/17 06:25:11;;;;;;;1.60;0.88;;;12.70;21.00;;;;;;5116953;27;34771;-76
2022/09/17 06:27:37;;;;;;;0.85;0.85;;;12.80;20.00;;;;;;5106907;27;34309;-76
2022/09/17 06:30:04;;;;;;;1.45;0.60;;;12.80;19.80;;;;;;5106328;27;34479;-75
2022/09/17 06:32:32;;;;;;;2.10;0.70;;;12.90;19.80;;;;;;5107241;27;34416;-76
2022/09/17 06:34:58;;;;;;;2.30;0.80;;;13.10;19.70;;;;;;5106869;27;36406;-76
2022/09/17 06:37:29;;;;;;;0.60;0.60;;;13.20;19.80;;;;;;5106256;27;34006;-76
2022/09/17 06:39:56;;;;;;;3.47;0.88;;;13.30;19.00;;;;;;5091334;27;34088;-78
2022/09/17 06:42:22;;;;;;;2.00;0.93;;;13.50;19.10;;;;;;5107653;27;34020;-77
2022/09/17 06:44:48;;;;;;;1.25;0.70;;;13.70;19.00;;;;;;5090220;27;35979;-78
2022/09/17 06:47:14;;;;;;;0.70;0.70;;;13.80;18.90;;;;;;5107755;27;34255;-75
2022/09/17 06:49:40;;;;;;;1.67;0.77;;;13.80;18.60;;;;;;5107563;27;34561;-77
2022/09/17 06:52:06;;;;;;;1.40;0.73;;;13.90;18.90;;;;;;5109773;27;34483;-78
2022/09/17 06:54:32;;;;;;;0.98;0.52;;;13.90;18.40;;;;;;5126215;27;34540;-77
2022/09/17 06:56:58;;;;;;;2.13;0.82;;;13.90;18.50;;;;;;5109272;27;34228;-82
2022/09/17 06:59:25;;;;;;;1.52;0.93;;;14.00;18.80;;;;;;5109364;27;34211;-79
2022/09/17 07:01:51;;;;;;;3.65;0.93;;;14.00;18.30;;;;;;5108787;27;34114;-77
2022/09/17 07:04:17;;;;;;;2.58;0.98;;;14.00;18.60;;;;;;5110395;27;36722;-81
2022/09/17 07:06:44;;;;;;;0.82;0.60;;;14.10;18.70;;;;;;5131103;27;34063;-78
2022/09/17 07:09:10;;;;;;;2.45;1.00;;;14.10;18.40;;;;;;5109067;27;34163;-76
2022/09/17 07:11:37;;;;;;;3.42;1.20;;;14.20;18.40;;;;;;5110845;27;34125;-79
2022/09/17 07:14:04;;;;;;;2.28;0.98;;;14.30;18.50;;;;;;5078967;27;34384;-75
2022/09/17 07:16:34;;;;;;;2.80;0.80;;;14.30;18.50;;;;;;5129813;27;35249;-76
2022/09/17 07:19:02;;;;;;;4.25;1.13;;;14.30;18.30;;;;;;5095434;27;34112;-76
2022/09/17 07:21:28;;;;;;;5.80;1.42;;;14.30;18.20;;;;;;5097782;27;34183;-75
2022/09/17 07:23:54;;;;;;;3.63;1.20;;;14.40;18.00;;;;;;5112121;27;36267;-76
2022/09/17 07:26:20;;;;;;;1.92;0.90;;;14.50;18.50;;;;;;5112262;27;34103;-75
2022/09/17 07:28:46;;;;;;;2.85;1.00;;;14.50;18.50;;;;;;5112462;27;34017;-81
2022/09/17 07:31:13;;;;;;;4.00;0.85;;;14.60;18.70;;;;;;5114838;27;34115;-77
2022/09/17 07:33:40;;;;;;;1.70;1.00;;;14.60;18.00;;;;;;5112498;27;36189;-78
2022/09/17 07:36:10;;;;;;;0.85;0.82;;;14.50;18.00;;;;;;5131822;27;34068;-84
2022/09/17 07:38:37;;;;;;;4.32;1.00;;;14.60;18.10;;;;;;5110158;27;34565;-80
2022/09/17 07:41:06;;;;;;;2.55;0.90;;;14.60;17.90;;;;;;5112436;27;34405;-82
2022/09/17 07:43:34;;;;;;;2.88;1.15;;;14.70;18.70;;;;;;5111234;27;35628;-79
2022/09/17 07:46:03;;;;;;;3.10;1.02;;;14.70;18.10;;;;;;5093539;27;34118;-77
2022/09/17 07:48:29;;;;;;;4.45;1.17;;;14.70;18.20;;;;;;5110896;27;34222;-77
2022/09/17 07:50:55;;;;;;;2.33;1.33;;;14.70;18.10;;;;;;5128264;27;33929;-77
2022/09/17 07:53:22;;;;;;;3.35;1.10;;;14.70;18.00;;;;;;5114280;27;35764;-77
2022/09/17 07:55:54;;;;;;;2.38;1.02;;;14.80;17.70;;;;;;5133021;27;34380;-77
2022/09/17 07:58:21;;;;;;;2.47;0.85;;;14.80;18.00;;;;;;5113807;27;34134;-77
2022/09/17 08:00:48;;;;;;;1.83;1.10;;;14.70;17.90;;;;;;5095729;27;34304;-77
2022/09/17 08:03:14;;;;;;;2.20;1.00;;;14.70;17.90;;;;;;5094499;27;35481;-77
2022/09/17 08:05:40;;;;;;;2.60;1.00;;;14.80;17.80;;;;;;5112618;27;34233;-77
2022/09/17 08:08:06;;;;;;;1.35;0.82;;;14.80;18.00;;;;;;5114507;27;34104;-78
2022/09/17 08:10:32;;;;;;;4.32;1.10;;;14.70;17.70;;;;;;5093448;27;34294;-76
2022/09/17 08:12:58;;;;;;;3.85;1.30;;;14.60;17.60;;;;;;5108739;27;35601;-76
2022/09/17 08:15:25;;;;;;;4.15;1.17;;;14.60;18.00;;;;;;5108876;27;34124;-76
2022/09/17 08:17:51;;;;;;;5.72;1.20;;;14.70;17.70;;;;;;5127350;27;34221;-75
2022/09/17 08:20:18;;;;;;;2.35;1.10;;;14.80;18.10;;;;;;5111531;27;34108;-79
2022/09/17 08:22:44;;;;;;;2.38;1.20;;;14.80;18.00;;;;;;5110056;27;35797;-76
2022/09/17 08:25:10;;;;;;;1.50;0.88;;;14.90;17.60;;;;;;5129479;27;34138;-77
2022/09/17 08:27:37;;;;;;;2.10;1.00;;;15.00;17.70;;;;;;5133803;27;34122;-78
2022/09/17 08:30:05;;;;;;;1.15;1.00;;;15.10;17.50;;;;;;5096604;27;34706;-77
2022/09/17 08:32:31;;;;;;;4.97;1.17;;;15.30;17.60;;;;;;5111337;27;34494;-82
2022/09/17 08:34:57;;;;;;;9.02;1.70;;;15.40;17.20;;;;;;5094987;27;33925;-81
2022/09/17 08:37:23;;;;;;;3.20;1.17;;;15.40;17.10;;;;;;5112969;27;34352;-78
2022/09/17 08:39:49;;;;;;;2.30;1.15;;;15.40;16.70;;;;;;5114201;27;34388;-80
2022/09/17 08:42:48;;;;;;;2.80;1.05;;;15.40;16.60;;;;;;5114201;27;35986;-79
2022/09/17 08:45:20;;;;;;;6.25;1.48;;;15.40;15.50;;;;;;5112235;27;34058;-80
2022/09/17 08:47:47;;;;;;;4.88;1.42;;;15.50;16.70;;;;;;5116087;27;34204;-80
2022/09/17 08:50:18;;;;;;;4.40;1.33;;;15.40;16.90;;;;;;5115734;27;34042;-78
2022/09/17 08:53:02;;;;;;;4.80;1.55;;;15.30;16.40;;;;;;5115446;27;35815;-80
2022/09/17 08:55:36;;;;;;;4.82;1.65;;;15.20;14.90;;;;;;5114053;27;34328;-81
2022/09/17 08:58:34;;;;;;;2.15;0.98;;;15.00;16.70;;;;;;5111491;27;34150;-82
2022/09/17 09:01:16;;;;;;;3.15;1.40;;;14.90;15.60;;;;;;5130928;27;34121;-78
2022/09/17 09:04:08;;;;;;;3.45;1.27;;;14.80;16.90;;;;;;5112827;27;36763;-80
2022/09/17 09:06:51;;;;;;;5.55;1.77;;;14.70;17.00;;;;;;5095150;27;33942;-79
2022/09/17 09:09:21;;;;;;;4.55;1.50;;;14.70;16.90;;;;;;5112984;27;34184;-83
2022/09/17 09:11:55;;;;;;;1.77;1.02;;;14.80;16.60;;;;;;5130569;27;34144;-79
2022/09/17 09:14:28;;;;;;;5.28;1.38;;;14.80;17.10;;;;;;5114374;27;35720;-78
2022/09/17 09:16:55;;;;;;;4.22;1.63;;;15.00;16.10;;;;;;5111938;27;34522;-79
2022/09/17 09:19:25;;;;;;;7.18;1.55;;;15.30;16.40;;;;;;5113828;27;34247;-80
2022/09/17 09:22:15;;;;;;;3.13;1.35;;;15.50;16.10;;;;;;5113930;27;34080;-80
2022/09/17 09:24:53;;;;;;;3.08;1.20;;;15.60;14.70;;;;;;5112662;27;36020;-76
2022/09/17 09:27:27;;;;;;;3.28;0.98;;;15.80;14.70;;;;;;5131381;27;34309;-79
2022/09/17 09:30:12;;;;;;;3.60;1.33;;;15.90;15.10;;;;;;5111463;27;34254;-77
2022/09/17 09:33:13;;;;;;;3.67;1.30;;;16.00;9.60;;;;;;5113804;27;34594;-79
2022/09/17 09:35:41;;;;;;;3.13;1.20;;;16.20;12.80;;;;;;5098387;27;36530;-83
2022/09/17 09:38:31;;;;;;;4.65;1.30;;;16.50;15.20;;;;;;5094114;27;34410;-78
2022/09/17 09:41:14;;;;;;;2.63;1.25;;;16.70;11.40;;;;;;5097412;27;34404;-78
2022/09/17 09:43:46;;;;;;;2.95;1.38;;;17.00;10.10;;;;;;5111277;27;34091;-79
2022/09/17 09:46:43;;;;;;;4.20;1.52;;;17.30;12.40;;;;;;5129989;27;34845;-78
2022/09/17 09:49:30;;;;;;;4.30;1.25;;;17.50;9.40;;;;;;5128266;27;34247;-75
2022/09/17 09:52:22;;;;;;;2.70;1.42;;;17.50;13.00;;;;;;5109313;27;34447;-79
2022/09/17 09:55:03;;;;;;;9.02;1.80;;;17.30;10.50;;;;;;5094960;27;34659;-77
2022/09/17 09:57:44;;;;;;;2.65;1.23;;;17.30;12.90;;;;;;5109250;27;35487;-81
2022/09/17 10:00:28;;;;;;;3.05;1.45;;;17.40;8.70;;;;;;5131132;27;34535;-76
2022/09/17 10:03:00;;;;;;;1.75;1.05;;;17.70;10.40;;;;;;5095650;27;34349;-80
2022/09/17 10:05:27;;;;;;;8.88;1.70;;;17.90;12.00;;;;;;5130531;27;34128;-78
2022/09/17 10:07:53;;;;;;;2.55;1.40;;;18.20;12.60;;;;;;5130902;27;34240;-78
2022/09/17 10:10:19;;;;;;;5.25;1.52;;;18.40;12.60;;;;;;5112977;27;34345;-79
2022/09/17 10:12:45;;;;;;;3.20;1.35;;;18.50;12.60;;;;;;5079292;27;34340;-80
2022/09/17 10:15:25;;;;;;;2.28;1.23;;;18.40;12.20;;;;;;5113362;27;34661;-78
2022/09/17 10:18:18;;;;;;;3.95;1.33;;;18.50;9.30;;;;;;5112641;27;35926;-80
2022/09/17 10:20:54;;;;;;;2.78;1.08;;;18.50;8.60;;;;;;5129430;27;34139;-76
2022/09/17 10:23:21;;;;;;;4.30;1.52;;;18.70;9.20;;;;;;5110918;27;34329;-79
2022/09/17 10:25:49;;;;;;;2.08;1.10;;;18.80;11.40;;;;;;5130239;27;33845;-79
2022/09/17 10:28:33;;;;;;;1.60;1.00;;;18.60;11.20;;;;;;5109163;27;35692;-78
2022/09/17 10:31:04;;;;;;;3.65;1.38;;;18.60;9.10;;;;;;5110697;27;34384;-79
2022/09/17 10:33:31;;;;;;;3.25;1.10;;;18.60;10.60;;;;;;5110917;27;34225;-80
2022/09/17 10:36:03;;;;;;;4.75;1.13;;;18.20;11.50;;;;;;5112629;27;34176;-78
2022/09/17 10:38:34;;;;;;;2.33;1.30;;;18.00;11.50;;;;;;5129706;27;34724;-79
2022/09/17 10:41:10;;;;;;;2.55;0.70;;;17.70;10.30;;;;;;5111685;27;34307;-82
2022/09/17 10:43:36;;;;;;;2.83;1.30;;;17.40;10.30;;;;;;5129551;27;34013;-84
2022/09/17 10:46:03;;;;;;;4.45;1.20;;;17.30;12.20;;;;;;5111271;27;34266;-78
2022/09/17 10:48:36;;;;;;;2.60;0.80;;;17.40;12.20;;;;;;5111102;27;35624;-77
2022/09/17 10:51:02;;;;;;;1.75;0.90;;;17.50;12.20;;;;;;5114901;27;34198;-76
2022/09/17 10:53:28;;;;;;;4.97;0.82;;;17.60;11.80;;;;;;5130616;27;34132;-77
2022/09/17 10:56:13;;;;;;;1.67;0.50;;;17.50;12.20;;;;;;5115096;27;34165;-78
2022/09/17 10:59:04;;;;;;;2.30;0.80;;;17.50;11.60;;;;;;5133635;27;35208;-77
2022/09/17 11:01:57;;;;;;;1.27;0.73;;;17.40;8.60;;;;;;5114208;27;34337;-78
2022/09/17 11:04:42;;;;;;;1.55;0.70;;;17.60;9.80;;;;;;5096973;27;34289;-81
2022/09/17 11:07:30;;;;;;;1.70;0.52;;;17.90;8.90;;;;;;5132406;27;34074;-78
2022/09/17 11:10:10;;;;;;;2.45;0.50;;;18.20;9.60;;;;;;5116388;27;34610;-82
2022/09/17 11:13:03;;;;;;;0.85;0.50;;;18.60;9.30;;;;;;5112713;27;34123;-76
2022/09/17 11:16:00;;;;;;;2.05;0.60;;;18.60;6.90;;;;;;5099792;27;34200;-77
2022/09/17 11:18:38;;;;;;;0.55;0.45;;;18.50;7.00;;;;;;5112170;27;34270;-76
2022/09/17 11:21:32;;;;;;;3.60;0.50;;;18.40;8.60;;;;;;5131357;27;34724;-75
2022/09/17 11:24:15;;;;;;;2.38;0.63;;;18.00;7.40;;;;;;5112105;27;34410;-77
2022/09/17 11:27:05;;;;;;;6.38;0.70;;;17.90;10.30;;;;;;5112144;27;34239;-76
2022/09/17 11:30:02;;;;;;;0.75;0.45;;;17.60;10.70;;;;;;5096992;27;34075;-76
2022/09/17 11:32:50;;;;;;;1.42;0.50;;;17.40;9.20;;;;;;5130852;27;34412;-76
2022/09/17 11:35:34;;;;;;;2.70;0.60;;;17.20;9.90;;;;;;5112017;27;34167;-76
2022/09/17 11:38:19;;;;;;;4.15;0.65;;;17.10;11.80;;;;;;5112927;27;34361;-75
2022/09/17 11:40:52;;;;;;;1.65;0.60;;;17.00;11.90;;;;;;5112723;27;33886;-77
2022/09/17 11:43:26;;;;;;;2.40;0.40;;;17.00;12.30;;;;;;5112120;27;35856;-76
2022/09/17 11:46:00;;;;;;;2.03;0.40;;;16.90;11.70;;;;;;5094651;27;34348;-76
2022/09/17 11:48:47;;;;;;;0.70;0.50;;;16.80;11.80;;;;;;5077698;27;34253;-75
2022/09/17 11:51:29;;;;;;;1.77;0.47;;;16.90;12.90;;;;;;5129276;27;34118;-76
2022/09/17 11:54:07;;;;;;;2.72;0.75;;;17.10;12.30;;;;;;5111241;27;35684;-75
2022/09/17 11:56:45;;;;;;;1.48;0.50;;;17.10;11.60;;;;;;5080132;27;34434;-79
2022/09/17 11:59:42;;;;;;;2.13;0.50;;;17.40;11.90;;;;;;5112232;27;34189;-77
2022/09/17 12:02:41;;;;;;;1.83;0.50;;;17.70;11.50;;;;;;5129950;27;34185;-76
2022/09/17 12:05:18;;;;;;;4.90;0.77;;;18.10;10.70;;;;;;5102707;27;35494;-79
2022/09/17 12:08:04;;;;;;;0.95;0.50;;;18.10;9.60;;;;;;5114891;27;34120;-77
2022/09/17 12:10:42;;;;;;;1.65;0.80;;;18.40;9.80;;;;;;5114058;27;34061;-78
2022/09/17 12:13:35;;;;;;;0.85;0.60;;;18.70;10.30;;;;;;5116740;27;33762;-78
2022/09/17 12:16:24;;;;;;;2.92;0.73;;;18.90;9.40;;;;;;5113480;27;35819;-82
2022/09/17 12:19:09;;;;;;;1.40;0.60;;;18.90;8.90;;;;;;5112683;27;34071;-78
2022/09/17 12:21:47;;;;;;;1.35;0.47;;;18.70;9.80;;;;;;5112713;27;34241;-77
2022/09/17 12:24:24;;;;;;;0.68;0.47;;;18.60;8.30;;;;;;5097125;27;34093;-77
2022/09/17 12:27:08;;;;;;;1.52;0.45;;;18.50;8.30;;;;;;5095463;27;35598;-82
2022/09/17 12:30:09;;;;;;;1.35;0.50;;;18.50;8.80;;;;;;5113774;27;34174;-78
2022/09/17 12:33:06;;;;;;;2.63;0.50;;;18.40;7.00;;;;;;5098735;27;34157;-78
2022/09/17 12:35:57;;;;;;;3.67;0.60;;;18.30;7.80;;;;;;5130703;27;34316;-77
2022/09/17 12:38:46;;;;;;;2.92;0.60;;;18.30;8.00;;;;;;5127657;27;35761;-78
2022/09/17 12:41:25;;;;;;;2.28;0.70;;;18.30;9.10;;;;;;5112741;27;34034;-78
2022/09/17 12:44:15;;;;;;;4.75;0.60;;;18.30;8.00;;;;;;5115184;27;34270;-80
2022/09/17 12:47:13;;;;;;;1.38;0.38;;;18.30;8.40;;;;;;5114317;27;34178;-82
2022/09/17 12:49:53;;;;;;;1.17;0.43;;;18.30;6.70;;;;;;5132394;27;34140;-79
2022/09/17 12:52:51;;;;;;;0.77;0.43;;;18.10;6.40;;;;;;5114668;27;34164;-75
2022/09/17 12:55:43;;;;;;;0.52;0.40;;;17.70;3.60;;;;;;5102327;27;34033;-81
2022/09/17 12:58:34;;;;;;;4.38;0.50;;;17.80;7.60;;;;;;5097877;27;34168;-78
2022/09/17 13:01:12;;;;;;;2.78;0.57;;;17.70;9.10;;;;;;5114029;27;35926;-81
2022/09/17 13:03:45;;;;;;;1.92;0.52;;;17.70;9.50;;;;;;5097085;27;34120;-77
2022/09/17 13:06:29;;;;;;;6.00;0.80;;;17.70;10.00;;;;;;5132969;27;33675;-81
2022/09/17 13:09:26;;;;;;;0.68;0.60;;;17.70;9.20;;;;;;5112708;27;34014;-76
2022/09/17 13:12:24;;;;;;;1.50;0.60;;;17.70;7.00;;;;;;5111266;27;35953;-77
2022/09/17 13:15:18;;;;;;;0.45;0.40;;;17.40;7.40;;;;;;5084023;27;34148;-78
2022/09/17 13:17:55;;;;;;;1.17;0.40;;;17.30;8.40;;;;;;5112481;27;34287;-79
2022/09/17 13:20:30;;;;;;;1.00;0.20;;;17.30;8.70;;;;;;5133762;27;33702;-79
2022/09/17 13:22:57;;;;;;;0.30;0.30;;;17.10;9.50;;;;;;5113243;27;34335;-79
2022/09/17 13:25:25;;;;;;;0.28;0.20;;;17.00;9.70;;;;;;5114290;27;34156;-80